createdAt,value
2022-12-16T00:03:02.247Z,47.65
2022-12-16T00:07:16.043Z,41.20
2022-12-16T00:11:32.428Z,42.85
2022-12-16T00:15:47.024Z,41.45
2022-12-16T00:20:02.858Z,43.25
2022-12-16T00:24:16.754Z,41.00
2022-12-16T00:28:32.350Z,41.75
2022-12-16T00:32:46.183Z,42.40
2022-12-16T00:37:00.046Z,40.80
2022-12-16T00:41:13.840Z,48.65
2022-12-16T00:45:30.900Z,41.50
2022-12-16T00:49:44.686Z,44.23
2022-12-16T00:53:58.523Z,43.85
2022-12-16T00:58:12.577Z,41.55
2022-12-16T01:02:27.855Z,45.63
2022-12-16T01:06:43.495Z,44.10
2022-12-16T01:10:58.634Z,43.45
2022-12-16T01:15:14.737Z,40.72
2022-12-16T01:19:29.803Z,38.08
2022-12-16T01:23:43.696Z,43.30
2022-12-16T01:27:57.565Z,37.35
2022-12-16T01:32:14.458Z,49.37
2022-12-16T01:36:29.736Z,39.95
2022-12-16T01:40:43.513Z,45.05
2022-12-16T01:44:57.302Z,30.03
2022-12-16T01:49:15.185Z,47.80
2022-12-16T01:53:32.235Z,35.45
2022-12-16T01:57:51.414Z,39.90
2022-12-16T02:02:10.309Z,41.00
2022-12-16T02:06:25.453Z,50.08
2022-12-16T02:10:55.138Z,33.40
2022-12-16T02:15:32.587Z,49.30
2022-12-16T02:20:10.018Z,43.47
2022-12-16T02:24:48.731Z,47.53
2022-12-16T02:29:29.667Z,46.37
2022-12-16T02:33:56.905Z,50.88
2022-12-16T02:38:22.480Z,44.15
2022-12-16T02:42:42.553Z,38.80
2022-12-16T02:46:57.271Z,46.30
2022-12-16T02:51:12.681Z,48.65
2022-12-16T02:55:33.965Z,44.42
2022-12-16T02:59:56.796Z,46.67
2022-12-16T03:04:14.870Z,48.78
2022-12-16T03:08:34.119Z,44.25
2022-12-16T03:12:48.151Z,37.73
2022-12-16T03:17:03.460Z,47.88
2022-12-16T03:21:18.427Z,51.30
2022-12-16T03:25:38.280Z,48.57
2022-12-16T03:29:58.580Z,56.20
2022-12-16T03:34:17.856Z,49.75
2022-12-16T03:38:33.318Z,53.13
2022-12-16T03:42:50.577Z,49.92
2022-12-16T03:47:04.398Z,44.95
2022-12-16T03:51:18.538Z,52.47
2022-12-16T03:55:32.483Z,45.85
2022-12-16T03:59:47.911Z,52.65
2022-12-16T04:04:01.810Z,48.03
2022-12-16T04:08:15.705Z,52.03
2022-12-16T04:12:43.325Z,53.75
2022-12-16T04:17:16.439Z,54.22
2022-12-16T04:21:48.756Z,48.05
2022-12-16T04:26:02.864Z,46.40
2022-12-16T04:30:20.647Z,53.55
2022-12-16T04:34:35.914Z,51.53
2022-12-16T04:39:15.851Z,57.05
2022-12-16T04:43:46.981Z,53.05
2022-12-16T04:48:18.707Z,46.63
2022-12-16T04:52:51.575Z,50.60
2022-12-16T04:57:22.804Z,43.53
2022-12-16T05:01:54.066Z,46.63
2022-12-16T05:06:25.835Z,50.53
2022-12-16T05:10:58.475Z,49.85
2022-12-16T05:15:43.422Z,44.77
2022-12-16T05:20:23.275Z,46.05
2022-12-16T05:24:56.212Z,49.28
2022-12-16T05:29:31.845Z,49.03
2022-12-16T05:34:04.331Z,49.40
2022-12-16T05:38:35.824Z,48.75
2022-12-16T05:43:16.547Z,46.23
2022-12-16T05:47:49.812Z,45.22
2022-12-16T05:52:22.781Z,45.67
2022-12-16T05:56:57.032Z,46.67
2022-12-16T06:01:30.066Z,48.17
2022-12-16T06:06:04.798Z,42.45
2022-12-16T06:10:40.850Z,48.80
2022-12-16T06:15:16.106Z,49.00
2022-12-16T06:19:48.031Z,45.70
2022-12-16T06:24:34.820Z,49.88
2022-12-16T06:29:07.435Z,43.80
2022-12-16T06:33:40.716Z,46.38
2022-12-16T06:38:12.705Z,35.83
2022-12-16T06:42:47.233Z,36.67
2022-12-16T06:47:19.840Z,38.42
2022-12-16T06:51:53.309Z,47.38
2022-12-16T06:56:25.873Z,38.60
2022-12-16T07:00:59.312Z,46.58
2022-12-16T07:05:31.701Z,43.85
2022-12-16T07:10:03.873Z,48.00
2022-12-16T07:14:44.555Z,47.05
2022-12-16T07:19:18.558Z,45.67
2022-12-16T07:23:51.921Z,32.75
2022-12-16T07:28:24.704Z,46.90
2022-12-16T07:32:57.138Z,48.63
2022-12-16T07:37:31.706Z,28.42
2022-12-16T07:42:03.440Z,44.55
2022-12-16T07:46:35.768Z,46.47
2022-12-16T07:51:07.614Z,41.08
2022-12-16T07:55:45.832Z,40.40
2022-12-16T08:00:31.037Z,37.35
2022-12-16T08:05:07.142Z,34.87
2022-12-16T08:09:39.698Z,37.30
2022-12-16T08:14:17.091Z,39.60
2022-12-16T08:18:50.812Z,43.73
2022-12-16T08:23:26.468Z,36.38
2022-12-16T08:27:59.420Z,38.30
2022-12-16T08:32:35.263Z,37.30
2022-12-16T08:37:09.425Z,38.97
2022-12-16T08:41:42.163Z,37.03
2022-12-16T08:46:16.233Z,36.15
2022-12-16T08:50:53.050Z,35.27
2022-12-16T08:55:29.736Z,36.53
2022-12-16T09:00:06.910Z,40.58
2022-12-16T09:04:39.231Z,34.37
2022-12-16T09:09:13.198Z,37.70
2022-12-16T09:13:45.414Z,38.35
2022-12-16T09:18:18.318Z,39.63
2022-12-16T09:22:50.314Z,44.17
2022-12-16T09:27:29.140Z,40.58
2022-12-16T09:32:02.072Z,40.83
2022-12-16T09:36:34.557Z,40.77
2022-12-16T09:41:07.917Z,37.33
2022-12-16T09:45:51.437Z,38.85
2022-12-16T09:50:24.813Z,37.03
2022-12-16T09:55:01.201Z,37.88
2022-12-16T09:59:38.037Z,37.88
2022-12-16T10:04:16.812Z,37.17
2022-12-16T10:08:56.931Z,39.67
2022-12-16T10:13:38.834Z,35.33
2022-12-16T10:18:15.085Z,39.50
2022-12-16T10:22:53.970Z,39.37
2022-12-16T10:27:32.270Z,36.58
2022-12-16T10:32:04.766Z,37.17
2022-12-16T10:36:41.171Z,40.73
2022-12-16T10:41:20.039Z,33.55
2022-12-16T10:46:00.660Z,34.60
2022-12-16T10:50:35.030Z,38.07
2022-12-16T10:55:16.423Z,35.38
2022-12-16T10:59:56.129Z,38.78
2022-12-16T11:04:52.292Z,36.05
2022-12-16T11:09:39.222Z,42.07
2022-12-16T11:14:33.397Z,37.92
2022-12-16T11:19:09.544Z,38.70
2022-12-16T11:23:43.512Z,42.13
2022-12-16T11:28:21.834Z,39.72
2022-12-16T11:32:56.290Z,38.40
2022-12-16T11:37:28.854Z,42.67
2022-12-16T11:42:02.085Z,43.53
2022-12-16T11:46:40.222Z,41.75
2022-12-16T11:51:13.866Z,41.15
2022-12-16T12:00:38.751Z,41.20
2022-12-16T12:05:10.059Z,41.75
2022-12-16T12:09:40.196Z,38.13
2022-12-16T12:14:20.991Z,45.65
2022-12-16T12:19:01.045Z,43.25
2022-12-16T12:23:39.715Z,39.60
2022-12-16T12:28:21.066Z,41.78
2022-12-16T12:33:04.091Z,41.92
2022-12-16T12:37:43.238Z,43.53
2022-12-16T12:42:42.054Z,47.57
2022-12-16T12:47:17.247Z,44.63
2022-12-16T12:51:56.580Z,43.92
2022-12-16T12:56:35.219Z,50.90
2022-12-16T13:01:11.923Z,48.40
2022-12-16T13:05:52.655Z,49.42
2022-12-16T13:10:49.143Z,49.47
2022-12-16T13:15:25.018Z,48.72
2022-12-16T13:20:03.449Z,51.67
2022-12-16T13:24:47.996Z,50.55
2022-12-16T13:29:35.007Z,58.13
2022-12-16T13:34:10.234Z,52.33
2022-12-16T13:38:43.550Z,50.78
2022-12-16T13:43:18.207Z,53.37
2022-12-16T13:48:23.734Z,55.95
2022-12-16T13:53:05.543Z,54.90
2022-12-16T13:57:39.886Z,51.23
2022-12-16T14:02:13.247Z,56.33
2022-12-16T14:06:48.173Z,66.75
2022-12-16T14:11:26.961Z,52.40
2022-12-16T14:16:10.880Z,65.40
2022-12-16T14:20:49.008Z,77.93
2022-12-16T14:25:28.069Z,80.60
2022-12-16T14:30:02.187Z,92.27
2022-12-16T14:34:36.223Z,71.55
2022-12-16T14:39:08.772Z,72.90
2022-12-16T14:43:43.868Z,72.23
2022-12-16T14:48:15.999Z,69.68
2022-12-16T14:52:47.222Z,71.40
2022-12-16T14:57:18.295Z,76.85
2022-12-16T15:01:50.954Z,89.20
2022-12-16T15:06:23.929Z,72.97
2022-12-16T15:10:56.149Z,78.95
2022-12-16T15:15:34.081Z,81.73
2022-12-16T15:20:11.680Z,74.65
2022-12-16T15:24:44.425Z,76.38
2022-12-16T15:29:15.337Z,81.60
2022-12-16T15:33:49.998Z,78.55
2022-12-16T15:38:30.170Z,63.05
2022-12-16T15:43:01.784Z,64.00
2022-12-16T15:47:40.663Z,76.33
2022-12-16T15:52:11.981Z,79.90
2022-12-16T15:56:51.684Z,67.15
2022-12-16T16:01:25.079Z,66.60
2022-12-16T16:05:58.561Z,64.82
2022-12-16T16:10:43.435Z,67.35
2022-12-16T16:15:16.267Z,68.50
2022-12-16T16:19:44.205Z,61.58
2022-12-16T16:24:15.206Z,65.50
2022-12-16T16:28:46.212Z,67.90
2022-12-16T16:33:19.046Z,68.07
2022-12-16T16:37:50.192Z,63.08
2022-12-16T16:42:21.275Z,66.25
2022-12-16T16:46:55.618Z,68.13
2022-12-16T16:51:28.262Z,70.45
2022-12-16T16:55:59.725Z,65.45
2022-12-16T17:00:43.409Z,67.37
2022-12-16T17:05:14.925Z,54.78
2022-12-16T17:09:47.513Z,62.17
2022-12-16T17:14:18.858Z,55.40
2022-12-16T17:18:52.507Z,59.07
2022-12-16T17:23:26.121Z,62.22
2022-12-16T17:28:03.287Z,62.33
2022-12-16T17:32:34.344Z,65.30
2022-12-16T17:37:05.643Z,65.95
2022-12-16T17:41:36.774Z,67.18
2022-12-16T17:46:17.714Z,65.23
2022-12-16T17:50:48.799Z,62.35
2022-12-16T17:55:34.489Z,62.20
2022-12-16T18:00:06.860Z,59.17
2022-12-16T18:04:44.861Z,63.22
2022-12-16T18:09:16.068Z,66.93
2022-12-16T18:13:46.981Z,64.45
2022-12-16T18:18:20.155Z,60.60
2022-12-16T18:22:52.963Z,70.68
2022-12-16T18:27:24.114Z,59.35
2022-12-16T18:32:10.177Z,63.73
2022-12-16T18:36:41.158Z,62.10
2022-12-16T18:41:21.191Z,66.22
2022-12-16T18:45:52.464Z,73.70
2022-12-16T18:50:28.671Z,81.68
2022-12-16T18:55:02.647Z,85.65
2022-12-16T18:59:35.068Z,86.22
2022-12-16T19:04:06.132Z,77.33
2022-12-16T19:08:37.266Z,88.43
2022-12-16T19:13:08.216Z,73.07
2022-12-16T19:17:40.823Z,66.37
2022-12-16T19:22:11.983Z,64.38
2022-12-16T19:26:43.247Z,65.80
2022-12-16T19:31:15.446Z,64.63
2022-12-16T19:35:48.026Z,63.15
2022-12-16T19:40:19.461Z,62.00
2022-12-16T19:44:50.917Z,67.50
2022-12-16T19:49:22.692Z,65.37
2022-12-16T19:53:56.293Z,63.10
2022-12-16T19:58:27.571Z,58.45
2022-12-16T20:02:58.003Z,57.30
2022-12-16T20:07:29.678Z,61.97
2022-12-16T20:12:02.636Z,60.58
2022-12-16T20:16:36.667Z,61.30
2022-12-16T20:21:07.992Z,67.25
2022-12-16T20:25:39.019Z,62.55
2022-12-16T20:30:11.643Z,61.42
2022-12-16T20:34:42.892Z,61.23
2022-12-16T20:39:14.906Z,65.15
2022-12-16T20:43:45.900Z,60.10
2022-12-16T20:48:18.949Z,61.60
2022-12-16T20:52:50.667Z,60.45
2022-12-16T20:57:23.152Z,61.35
2022-12-16T21:02:21.608Z,61.70
2022-12-16T21:06:47.442Z,62.92
2022-12-16T21:11:18.642Z,65.20
2022-12-16T21:15:49.901Z,64.07
2022-12-16T21:20:21.485Z,63.50
2022-12-16T21:24:53.932Z,62.00
2022-12-16T21:29:27.870Z,66.82
2022-12-16T21:33:59.114Z,67.40
2022-12-16T21:38:32.653Z,67.15
2022-12-16T21:43:05.282Z,62.47
2022-12-16T21:47:36.525Z,66.03
2022-12-16T21:52:07.603Z,58.90
2022-12-16T21:56:38.950Z,59.47
2022-12-16T22:01:15.154Z,65.90
2022-12-16T22:05:57.940Z,62.57
2022-12-16T22:10:29.398Z,59.60
2022-12-16T22:15:00.419Z,62.67
2022-12-16T22:19:33.074Z,60.67
2022-12-16T22:24:04.488Z,62.00
2022-12-16T22:28:35.919Z,57.28
2022-12-16T22:33:07.233Z,67.83
2022-12-16T22:37:39.963Z,63.85
2022-12-16T22:42:11.604Z,60.60
2022-12-16T22:46:42.650Z,60.15
2022-12-16T22:51:14.061Z,58.67
2022-12-16T22:55:46.967Z,59.28
2022-12-16T23:00:18.481Z,58.40
2022-12-16T23:04:50.163Z,56.97
2022-12-16T23:09:21.341Z,63.88
2022-12-16T23:13:58.959Z,55.90
2022-12-16T23:18:26.646Z,61.83
2022-12-16T23:22:57.982Z,59.80
2022-12-16T23:27:28.840Z,59.90
2022-12-16T23:32:01.498Z,61.13
2022-12-16T23:36:32.525Z,62.60
2022-12-16T23:41:03.507Z,56.63
2022-12-16T23:45:34.588Z,59.00
2022-12-16T23:50:10.900Z,53.97
2022-12-16T23:54:45.026Z,61.85
2022-12-16T23:59:16.229Z,58.78
